CheckWX is a tool to help pilots better visualize weather data.  It is not intended as a substitute for an official pre-flight weather briefing.

01:10:40 UTC

KBOW METAR
Bartow Municipal Airport
Bartow, Florida, USA
Current

16 mins ago

KBOW 200055Z AUTO 33008KT 10SM 27/22 A3008 RMK AO2 LTG DSNT SW-N
Observed
Jul-20 @ 00:55 UTC
Wind
  • 330° at 8 KTS
Visibility
10 SM
Temperature
27°C / 81°F
Dewpoint
22°C / 72°F
Heat Index
29°C / 85°F
Humidity
74%
Altimeter
30.08" Hg
Pressure
1018.62 hPa
Previous

36 mins ago

KBOW 200035Z AUTO 30013G19KT 10SM OVC035 27/21 A3008 RMK AO2 LTG DSNT SW-NW
Observed
Jul-20 @ 00:35 UTC
Wind
  • 300° at 13 KTS
  • Gusting to 19 KTS
Visibility
10 SM
Flight Rules
VFR
Cloud Levels
  • Overcast at 3,500' AGL
Temperature
27°C / 81°F
Dewpoint
21°C / 70°F
Heat Index
29°C / 85°F
Humidity
70%
Altimeter
30.08" Hg
Pressure
1018.62 hPa
Previous

56 mins ago

KBOW 200015Z AUTO 25020KT 10SM VCTS SCT038 BKN055 BKN070 28/22 A3008 RMK AO2 LTG DSNT SW-NW
Observed
Jul-20 @ 00:15 UTC
Wind
  • 250° at 20 KTS
Visibility
10 SM
Flight Rules
VFR
Conditions
Area Thunderstorm
Cloud Levels
  • Scattered at 3,800' AGL
  • Broken at 5,500' AGL
  • Broken at 7,000' AGL
Temperature
28°C / 82°F
Dewpoint
22°C / 72°F
Heat Index
30°C / 86°F
Humidity
70%
Altimeter
30.08" Hg
Pressure
1018.62 hPa